Time;durP1;ratioP1;P1;durP2;ratioP2;P2;SDS_P1;SDS_P2;PMS_P1;PMS_P2;Temp;Humidity;BMP_temperature;BMP_pressure;BME280_temperature;BME280_humidity;BME280_pressure;Samples;Min_cycle;Max_cycle;Signal;HPM_P1;HPM_P2
2022/09/16 00:01:11;;;;;;;6.23;1.20;;;13.80;99.90;;;;;;5032741;28;20246;-76
2022/09/16 00:03:39;;;;;;;4.67;0.80;;;13.80;99.90;;;;;;5034037;28;20260;-76
2022/09/16 00:06:15;;;;;;;2.73;0.90;;;13.80;99.90;;;;;;5017157;28;20208;-78
2022/09/16 00:08:44;;;;;;;4.90;1.00;;;13.80;99.90;;;;;;5033047;28;20198;-76
2022/09/16 00:11:11;;;;;;;5.20;0.80;;;13.70;99.90;;;;;;5034108;28;20229;-76
2022/09/16 00:13:40;;;;;;;3.30;0.90;;;13.70;99.90;;;;;;5033925;28;20257;-76
2022/09/16 00:16:08;;;;;;;3.30;0.90;;;13.60;99.90;;;;;;5033854;28;20285;-76
2022/09/16 00:18:35;;;;;;;3.67;0.97;;;13.50;99.90;;;;;;5034193;28;20198;-77
2022/09/16 00:21:01;;;;;;;4.47;0.93;;;13.50;99.90;;;;;;5033562;28;20685;-76
2022/09/16 00:23:28;;;;;;;2.87;0.67;;;13.40;99.90;;;;;;5033049;28;20218;-76
2022/09/16 00:25:56;;;;;;;4.70;1.17;;;13.40;99.90;;;;;;5033003;28;20207;-77
2022/09/16 00:28:23;;;;;;;2.90;0.80;;;13.40;99.90;;;;;;5034607;28;20222;-76
2022/09/16 00:30:52;;;;;;;3.20;0.60;;;13.30;99.90;;;;;;5034408;28;20194;-76
2022/09/16 00:33:20;;;;;;;1.20;0.57;;;13.30;99.90;;;;;;5034375;28;20221;-75
2022/09/16 00:35:47;;;;;;;3.13;0.87;;;13.20;99.90;;;;;;5034251;28;20202;-76
2022/09/16 00:38:14;;;;;;;1.93;0.70;;;13.20;99.90;;;;;;5034017;28;20202;-75
2022/09/16 00:40:45;;;;;;;3.67;0.90;;;13.10;99.90;;;;;;5033669;28;20210;-75
2022/09/16 00:43:13;;;;;;;2.83;0.70;;;13.10;99.90;;;;;;5033013;28;20202;-76
2022/09/16 00:45:41;;;;;;;3.40;0.90;;;13.00;99.90;;;;;;5034107;28;20281;-75
2022/09/16 00:48:15;;;;;;;3.13;1.00;;;13.00;99.90;;;;;;5033799;28;20214;-76
2022/09/16 00:50:47;;;;;;;5.67;1.20;;;13.00;99.90;;;;;;5033084;28;20207;-76
2022/09/16 00:53:19;;;;;;;7.03;0.90;;;13.00;99.90;;;;;;5031182;28;20194;-75
2022/09/16 00:55:46;;;;;;;6.20;0.90;;;13.00;99.90;;;;;;5013737;28;20503;-76
2022/09/16 00:58:18;;;;;;;6.83;1.67;;;13.00;99.90;;;;;;5013151;28;20200;-76
2022/09/16 01:00:45;;;;;;;5.47;1.00;;;13.00;99.90;;;;;;5022342;28;20203;-75
2022/09/16 01:03:13;;;;;;;5.90;1.27;;;13.10;99.90;;;;;;5032169;28;20229;-75
2022/09/16 01:05:40;;;;;;;3.50;0.90;;;13.20;99.90;;;;;;5030937;28;20294;-79
2022/09/16 01:08:07;;;;;;;2.53;0.60;;;13.20;99.90;;;;;;5033201;28;20198;-76
2022/09/16 01:10:34;;;;;;;5.53;1.23;;;13.30;99.90;;;;;;5033441;28;20206;-76
2022/09/16 01:13:04;;;;;;;6.67;1.10;;;13.30;99.90;;;;;;5032413;28;20202;-77
2022/09/16 01:15:41;;;;;;;5.97;1.00;;;13.30;99.90;;;;;;5032512;28;20213;-78
2022/09/16 01:18:18;;;;;;;5.57;1.17;;;13.40;99.90;;;;;;5031902;28;20197;-76
2022/09/16 01:21:03;;;;;;;7.63;1.23;;;13.30;99.90;;;;;;5032689;28;20206;-77
2022/09/16 01:23:54;;;;;;;3.33;1.00;;;13.40;99.90;;;;;;5032302;28;20202;-78
2022/09/16 01:26:48;;;;;;;5.60;1.20;;;13.40;99.90;;;;;;5032441;28;20221;-78
2022/09/16 01:29:41;;;;;;;7.10;1.53;;;13.50;99.90;;;;;;5032060;28;20222;-76
2022/09/16 01:32:14;;;;;;;5.87;1.20;;;13.50;99.90;;;;;;5011544;28;20199;-78
2022/09/16 01:34:50;;;;;;;6.37;1.47;;;13.50;99.90;;;;;;5032877;28;20301;-78
2022/09/16 01:37:29;;;;;;;6.47;1.70;;;13.60;99.90;;;;;;5032483;28;20243;-77
2022/09/16 01:40:05;;;;;;;8.87;1.70;;;13.80;99.90;;;;;;5032243;28;20220;-78
2022/09/16 01:42:40;;;;;;;4.83;1.20;;;13.80;99.90;;;;;;5032661;28;20229;-75
2022/09/16 01:45:15;;;;;;;8.20;1.70;;;13.80;99.90;;;;;;5032295;28;20198;-76
2022/09/16 01:47:51;;;;;;;6.70;1.30;;;13.80;99.90;;;;;;5032082;28;20229;-77
2022/09/16 01:50:24;;;;;;;3.20;1.10;;;13.70;99.90;;;;;;5032547;28;20198;-78
2022/09/16 01:52:59;;;;;;;3.37;1.07;;;13.60;99.90;;;;;;5032266;28;20209;-76
2022/09/16 01:55:31;;;;;;;4.70;1.17;;;13.50;99.90;;;;;;5031650;28;20194;-77
2022/09/16 01:58:03;;;;;;;2.80;0.80;;;13.40;99.90;;;;;;5032298;28;20238;-78
2022/09/16 02:00:31;;;;;;;2.07;0.70;;;13.50;99.90;;;;;;5031735;28;20196;-76
2022/09/16 02:03:03;;;;;;;4.43;0.80;;;13.50;99.90;;;;;;5031660;28;20553;-77
2022/09/16 02:05:34;;;;;;;3.90;1.00;;;13.50;99.90;;;;;;5032454;28;20195;-77
2022/09/16 02:08:05;;;;;;;4.67;1.10;;;13.50;99.90;;;;;;5031740;28;20199;-78
2022/09/16 02:10:39;;;;;;;5.70;0.73;;;13.50;99.90;;;;;;5031666;28;20298;-78
2022/09/16 02:13:10;;;;;;;5.07;1.10;;;13.70;87.60;;;;;;5031939;28;20194;-78
2022/09/16 02:15:40;;;;;;;3.90;0.90;;;13.80;25.20;;;;;;5031512;28;20191;-77
2022/09/16 02:18:13;;;;;;;3.70;1.00;;;13.80;1.00;;;;;;5031919;28;20205;-78
2022/09/16 02:20:42;;;;;;;4.17;0.80;;;13.90;12.10;;;;;;5032441;28;20202;-79
2022/09/16 02:23:14;;;;;;;4.87;0.83;;;13.90;99.90;;;;;;5031102;28;20222;-77
2022/09/16 02:25:45;;;;;;;5.80;0.90;;;13.90;99.90;;;;;;5031879;28;20202;-78
2022/09/16 02:28:17;;;;;;;8.00;1.20;;;14.00;1.00;;;;;;5031320;28;20205;-77
2022/09/16 02:30:50;;;;;;;5.37;1.50;;;14.00;1.00;;;;;;5031336;28;20198;-77
2022/09/16 02:33:20;;;;;;;8.80;1.73;;;14.10;1.00;;;;;;5031937;28;20191;-78
2022/09/16 02:35:50;;;;;;;7.63;1.50;;;14.10;1.00;;;;;;5031107;28;20253;-77
2022/09/16 02:38:22;;;;;;;7.37;1.50;;;14.10;1.00;;;;;;5031056;28;20298;-78
2022/09/16 02:40:52;;;;;;;7.30;1.33;;;14.10;62.70;;;;;;5031749;28;20197;-76
2022/09/16 02:43:19;;;;;;;4.47;1.10;;;14.00;99.90;;;;;;5030785;28;20654;-77
2022/09/16 02:45:51;;;;;;;3.70;0.80;;;13.90;99.90;;;;;;5030930;28;20285;-77
2022/09/16 02:48:27;;;;;;;1.77;0.70;;;13.80;99.90;;;;;;5031819;28;20576;-77
2022/09/16 02:51:02;;;;;;;3.93;1.00;;;13.70;99.90;;;;;;5031472;28;20201;-78
2022/09/16 02:53:42;;;;;;;5.10;0.77;;;13.60;99.90;;;;;;5031619;28;20198;-77
2022/09/16 02:56:17;;;;;;;3.53;1.33;;;13.50;99.90;;;;;;5031707;28;20582;-77
2022/09/16 02:58:44;;;;;;;4.23;1.17;;;13.40;99.90;;;;;;5030428;28;20617;-77
2022/09/16 03:01:13;;;;;;;5.10;1.10;;;13.40;99.90;;;;;;5031581;28;20209;-77
2022/09/16 03:03:42;;;;;;;3.13;1.00;;;13.30;99.90;;;;;;5030535;28;20219;-76
2022/09/16 03:06:18;;;;;;;6.70;1.10;;;13.30;99.90;;;;;;5030948;28;20207;-76
2022/09/16 03:08:46;;;;;;;7.27;1.30;;;13.30;99.90;;;;;;5031714;28;20622;-77
2022/09/16 03:11:46;;;;;;;4.30;1.10;;;13.30;99.90;;;;;;5030865;28;20293;-77
2022/09/16 03:14:29;;;;;;;5.97;1.07;;;13.30;99.90;;;;;;4990433;28;20206;-76
2022/09/16 03:17:06;;;;;;;4.30;0.73;;;13.30;99.90;;;;;;5033805;28;20203;-77
2022/09/16 03:19:43;;;;;;;3.80;0.83;;;13.30;99.90;;;;;;5034576;28;20285;-77
2022/09/16 03:22:18;;;;;;;6.27;1.00;;;13.30;96.80;;;;;;5035004;28;20202;-77
2022/09/16 03:24:53;;;;;;;5.70;0.90;;;13.40;1.00;;;;;;5034737;28;20508;-76
2022/09/16 03:27:28;;;;;;;4.60;0.93;;;13.40;1.00;;;;;;5034845;28;20214;-77
2022/09/16 03:30:02;;;;;;;9.60;1.20;;;13.50;1.00;;;;;;5035258;28;20217;-75
2022/09/16 03:32:32;;;;;;;3.67;1.47;;;13.50;1.00;;;;;;5034446;28;20201;-77
2022/09/16 03:35:04;;;;;;;4.43;1.10;;;13.60;1.00;;;;;;5034904;28;20793;-77
2022/09/16 03:37:34;;;;;;;5.57;1.10;;;13.60;1.00;;;;;;5034464;28;20206;-77
2022/09/16 03:40:08;;;;;;;5.77;1.30;;;13.60;1.00;;;;;;5034793;28;20203;-77
2022/09/16 03:42:35;;;;;;;6.33;1.10;;;13.60;39.00;;;;;;5034798;28;20220;-76
2022/09/16 03:45:01;;;;;;;5.67;1.40;;;13.60;99.90;;;;;;5035171;28;20199;-78
2022/09/16 03:47:28;;;;;;;5.27;1.00;;;13.60;99.90;;;;;;5033904;28;20210;-77
2022/09/16 03:49:55;;;;;;;4.00;1.40;;;13.50;99.90;;;;;;5034937;28;20199;-76
2022/09/16 03:52:23;;;;;;;4.90;1.10;;;13.50;99.90;;;;;;5034123;28;20230;-76
2022/09/16 03:54:50;;;;;;;5.30;1.23;;;13.50;99.90;;;;;;5033841;28;20622;-78
2022/09/16 03:57:17;;;;;;;7.07;1.50;;;13.50;99.90;;;;;;5034584;28;20240;-76
2022/09/16 03:59:44;;;;;;;7.53;1.00;;;13.60;66.80;;;;;;5034717;28;20203;-77
2022/09/16 04:02:10;;;;;;;3.17;1.00;;;13.60;1.00;;;;;;5032825;28;20249;-77
2022/09/16 04:04:37;;;;;;;3.50;0.93;;;13.50;1.00;;;;;;5034265;28;20199;-77
2022/09/16 04:07:04;;;;;;;3.50;0.80;;;13.40;15.80;;;;;;5033877;28;20626;-77
2022/09/16 04:09:32;;;;;;;5.03;1.10;;;13.30;33.80;;;;;;5033681;28;20591;-76
2022/09/16 04:11:59;;;;;;;3.50;0.90;;;13.10;62.90;;;;;;5034435;28;20210;-77
2022/09/16 04:14:26;;;;;;;6.20;1.23;;;13.20;42.30;;;;;;5033442;28;20198;-76
2022/09/16 04:16:54;;;;;;;5.60;1.07;;;13.10;86.10;;;;;;5034339;28;20190;-76
2022/09/16 04:19:21;;;;;;;4.43;1.10;;;13.10;99.90;;;;;;5033222;28;20211;-76
2022/09/16 04:21:48;;;;;;;8.53;1.00;;;13.10;99.90;;;;;;5033272;28;20237;-76
2022/09/16 04:24:15;;;;;;;9.67;1.30;;;13.20;97.00;;;;;;5033906;28;20322;-78
2022/09/16 04:26:43;;;;;;;10.73;2.07;;;13.30;55.00;;;;;;5033731;28;20214;-77
2022/09/16 04:29:10;;;;;;;7.90;1.70;;;13.30;99.90;;;;;;5032368;28;20657;-77
2022/09/16 04:31:37;;;;;;;5.97;1.07;;;13.30;50.40;;;;;;5033035;28;20215;-77
2022/09/16 04:34:05;;;;;;;4.43;1.17;;;13.20;93.90;;;;;;5033919;28;20205;-77
2022/09/16 04:36:32;;;;;;;2.60;1.00;;;13.10;72.60;;;;;;5033080;28;20202;-77
2022/09/16 04:38:59;;;;;;;4.70;1.00;;;13.00;91.20;;;;;;5034079;28;20195;-77
2022/09/16 04:41:27;;;;;;;8.90;1.60;;;12.90;94.00;;;;;;5034216;28;20224;-76
2022/09/16 04:43:57;;;;;;;4.93;1.37;;;12.90;90.10;;;;;;5032519;28;20226;-77
2022/09/16 04:46:24;;;;;;;5.63;1.00;;;12.90;95.60;;;;;;5033482;28;20549;-76
2022/09/16 04:48:52;;;;;;;4.17;0.90;;;12.90;99.90;;;;;;5033955;28;20303;-76
2022/09/16 04:51:21;;;;;;;5.13;1.33;;;12.80;99.90;;;;;;5032731;28;20206;-76
2022/09/16 04:53:49;;;;;;;7.63;1.57;;;12.80;99.90;;;;;;5033611;28;20750;-77
2022/09/16 04:56:18;;;;;;;8.93;1.90;;;12.90;99.90;;;;;;5032680;28;20242;-78
2022/09/16 04:58:47;;;;;;;5.07;1.37;;;12.90;99.90;;;;;;5032861;28;20199;-78
2022/09/16 05:01:17;;;;;;;6.47;1.47;;;12.90;99.90;;;;;;5033541;28;20201;-77
2022/09/16 05:03:46;;;;;;;4.90;1.23;;;12.90;99.90;;;;;;5031617;28;20225;-78
2022/09/16 05:06:15;;;;;;;6.50;1.40;;;13.00;99.90;;;;;;5033613;28;20195;-78
2022/09/16 05:08:42;;;;;;;6.67;1.47;;;13.00;99.90;;;;;;5033204;28;20203;-78
2022/09/16 05:11:11;;;;;;;6.10;1.47;;;13.00;99.90;;;;;;5032064;28;20198;-78
2022/09/16 05:13:38;;;;;;;8.23;1.67;;;13.10;99.90;;;;;;5033285;28;20507;-76
2022/09/16 05:16:07;;;;;;;5.83;1.30;;;13.00;99.90;;;;;;5032379;28;20210;-78
2022/09/16 05:18:36;;;;;;;8.03;1.43;;;13.10;99.90;;;;;;5032333;28;20205;-79
2022/09/16 05:21:05;;;;;;;6.83;1.20;;;13.00;99.90;;;;;;5032543;28;20756;-79
2022/09/16 05:23:33;;;;;;;7.07;1.20;;;13.00;99.90;;;;;;5032521;28;20218;-78
2022/09/16 05:26:04;;;;;;;8.37;1.13;;;12.90;99.90;;;;;;5032457;28;20492;-78
2022/09/16 05:28:31;;;;;;;7.47;1.20;;;12.80;99.90;;;;;;5032554;28;20231;-78
2022/09/16 05:31:08;;;;;;;3.23;1.13;;;12.60;99.90;;;;;;5032782;28;20521;-78
2022/09/16 05:33:37;;;;;;;5.33;1.20;;;12.50;99.90;;;;;;5031345;28;20622;-78
2022/09/16 05:36:05;;;;;;;5.33;1.27;;;12.40;99.90;;;;;;5032703;28;20190;-78
2022/09/16 05:38:32;;;;;;;7.30;1.87;;;12.40;99.90;;;;;;5031692;28;20520;-78
2022/09/16 05:41:00;;;;;;;4.87;1.27;;;12.40;99.90;;;;;;5032314;28;20272;-78
2022/09/16 05:43:27;;;;;;;5.70;1.10;;;12.50;99.90;;;;;;5032631;28;20218;-79
2022/09/16 05:45:54;;;;;;;6.60;1.33;;;12.40;99.90;;;;;;5031847;28;20397;-78
2022/09/16 05:48:22;;;;;;;8.33;1.50;;;12.40;99.90;;;;;;5032358;28;20498;-79
2022/09/16 05:50:53;;;;;;;7.27;1.47;;;12.40;99.90;;;;;;5031670;28;20511;-78
2022/09/16 05:53:21;;;;;;;4.13;1.10;;;12.40;99.90;;;;;;5031797;28;20187;-78
2022/09/16 05:55:58;;;;;;;5.57;1.83;;;12.40;99.90;;;;;;5032370;28;20202;-77
2022/09/16 05:58:26;;;;;;;6.90;1.10;;;12.40;99.90;;;;;;5031447;28;20206;-78
2022/09/16 06:00:58;;;;;;;5.67;1.43;;;12.40;99.90;;;;;;5030878;28;20678;-79
2022/09/16 06:03:25;;;;;;;7.77;1.60;;;12.40;99.90;;;;;;5030909;28;20226;-77
2022/09/16 06:05:59;;;;;;;7.90;1.53;;;12.50;99.90;;;;;;5032168;28;20214;-78
2022/09/16 06:08:27;;;;;;;3.70;1.10;;;12.50;99.90;;;;;;5030701;28;20206;-77
2022/09/16 06:10:54;;;;;;;4.47;0.90;;;12.50;99.90;;;;;;5031705;28;20221;-78
2022/09/16 06:13:21;;;;;;;3.20;1.00;;;12.50;99.90;;;;;;5031946;28;20567;-78
2022/09/16 06:15:53;;;;;;;5.77;1.23;;;12.50;99.90;;;;;;5030999;28;20202;-79
2022/09/16 06:18:20;;;;;;;6.50;1.07;;;12.60;99.90;;;;;;5031627;28;20606;-79
2022/09/16 06:20:47;;;;;;;3.87;1.10;;;12.60;99.90;;;;;;5030753;28;20240;-78
2022/09/16 06:23:17;;;;;;;4.20;1.07;;;12.60;99.90;;;;;;5031223;28;20218;-78
2022/09/16 06:25:44;;;;;;;3.27;1.10;;;12.60;99.90;;;;;;5044907;28;20228;-78
2022/09/16 06:28:11;;;;;;;4.97;1.10;;;12.70;99.90;;;;;;5027282;28;20762;-78
2022/09/16 06:30:38;;;;;;;2.30;0.83;;;12.70;99.90;;;;;;5029524;28;20301;-78
2022/09/16 06:33:05;;;;;;;4.03;1.07;;;12.70;97.60;;;;;;5030440;28;20213;-79
2022/09/16 06:35:33;;;;;;;4.90;1.50;;;12.80;54.30;;;;;;5033048;28;20202;-78
2022/09/16 06:38:00;;;;;;;7.27;1.20;;;12.80;55.30;;;;;;5030971;28;20719;-79
2022/09/16 06:40:29;;;;;;;5.77;1.57;;;12.90;55.60;;;;;;5030909;28;20209;-78
2022/09/16 06:42:56;;;;;;;7.00;1.23;;;13.00;38.80;;;;;;5027772;28;20203;-78
2022/09/16 06:45:22;;;;;;;3.70;1.67;;;13.20;39.10;;;;;;5031041;28;20191;-80
2022/09/16 06:47:49;;;;;;;10.57;2.10;;;13.30;99.90;;;;;;5030810;28;20240;-79
2022/09/16 06:50:16;;;;;;;5.57;1.30;;;13.30;99.90;;;;;;5029885;28;20195;-79
2022/09/16 06:52:43;;;;;;;6.03;1.23;;;13.20;99.90;;;;;;5034237;28;20621;-79
2022/09/16 06:55:10;;;;;;;3.07;0.83;;;13.10;99.90;;;;;;5033836;28;20194;-79
2022/09/16 06:57:39;;;;;;;4.67;1.30;;;12.90;99.90;;;;;;5034716;28;20264;-79
2022/09/16 07:00:07;;;;;;;5.67;1.60;;;12.80;99.90;;;;;;5034425;28;20212;-79
2022/09/16 07:02:35;;;;;;;3.53;1.50;;;12.70;99.90;;;;;;5035576;28;20237;-79
2022/09/16 07:05:02;;;;;;;8.27;1.10;;;12.50;99.90;;;;;;5036029;28;20522;-80
2022/09/16 07:07:30;;;;;;;9.50;1.67;;;12.50;99.90;;;;;;5035236;28;20203;-79
2022/09/16 07:09:57;;;;;;;6.93;1.20;;;12.50;99.90;;;;;;5033658;28;20633;-78
2022/09/16 07:12:24;;;;;;;6.90;1.23;;;12.50;99.90;;;;;;5033950;28;20591;-80
2022/09/16 07:14:52;;;;;;;10.10;1.50;;;12.50;99.90;;;;;;5035193;28;20206;-79
2022/09/16 07:17:22;;;;;;;8.30;1.83;;;12.60;99.90;;;;;;5034891;28;20284;-77
2022/09/16 07:19:49;;;;;;;6.00;1.20;;;12.70;99.90;;;;;;5030770;28;20202;-79
2022/09/16 07:22:16;;;;;;;4.40;1.53;;;12.80;99.90;;;;;;5024770;28;20286;-80
2022/09/16 07:24:42;;;;;;;6.20;1.03;;;12.80;99.90;;;;;;5031566;28;20313;-80
2022/09/16 07:27:09;;;;;;;5.97;1.00;;;12.80;99.90;;;;;;5036081;28;20207;-78
2022/09/16 07:29:36;;;;;;;4.93;1.30;;;12.80;99.90;;;;;;5035794;28;20223;-78
2022/09/16 07:32:04;;;;;;;6.47;1.10;;;12.80;99.90;;;;;;5034572;28;20203;-78
2022/09/16 07:34:31;;;;;;;5.87;1.07;;;12.90;99.90;;;;;;5035272;28;20201;-78
2022/09/16 07:37:00;;;;;;;8.40;1.30;;;12.90;99.90;;;;;;5034506;28;20217;-77
2022/09/16 07:39:27;;;;;;;4.73;1.10;;;13.00;99.90;;;;;;5035421;28;20199;-78
2022/09/16 07:41:53;;;;;;;7.00;1.50;;;13.20;99.90;;;;;;5035928;28;20272;-78
2022/09/16 07:44:20;;;;;;;7.70;1.67;;;13.30;99.90;;;;;;5034939;28;20237;-77
2022/09/16 07:46:49;;;;;;;4.43;1.30;;;13.40;99.90;;;;;;5035304;28;20198;-78
2022/09/16 07:49:18;;;;;;;6.07;1.17;;;13.50;99.90;;;;;;5036627;28;20253;-78
2022/09/16 07:51:45;;;;;;;6.80;1.60;;;13.50;99.90;;;;;;5035086;28;20494;-79
2022/09/16 07:54:14;;;;;;;3.53;1.47;;;13.50;99.90;;;;;;5035495;28;20195;-80
2022/09/16 07:56:41;;;;;;;7.07;1.33;;;13.60;99.90;;;;;;5036056;28;20329;-80
2022/09/16 07:59:13;;;;;;;3.97;1.17;;;13.60;99.90;;;;;;5035541;28;20198;-80
2022/09/16 08:01:40;;;;;;;3.70;1.10;;;13.40;99.90;;;;;;5046069;28;20198;-79
2022/09/16 08:04:06;;;;;;;4.40;1.40;;;13.20;92.60;;;;;;5052289;28;20291;-80
2022/09/16 08:06:38;;;;;;;6.80;1.50;;;13.20;98.80;;;;;;5035383;28;20301;-80
2022/09/16 08:09:05;;;;;;;6.93;1.40;;;13.10;99.90;;;;;;5036054;28;20277;-80
2022/09/16 08:11:32;;;;;;;9.23;1.60;;;13.10;99.90;;;;;;5035798;28;20201;-79
2022/09/16 08:13:59;;;;;;;10.20;2.77;;;13.00;99.90;;;;;;5034628;28;20195;-80
2022/09/16 08:16:27;;;;;;;8.83;1.47;;;13.10;99.90;;;;;;5035565;28;20289;-80
2022/09/16 08:18:56;;;;;;;5.03;1.27;;;13.00;99.90;;;;;;5034836;28;20210;-80
2022/09/16 08:21:25;;;;;;;5.00;1.00;;;13.00;99.90;;;;;;5034809;28;20512;-78
2022/09/16 08:23:54;;;;;;;7.90;1.40;;;12.90;99.90;;;;;;5035535;28;20276;-78
2022/09/16 08:26:21;;;;;;;3.10;0.90;;;12.80;99.90;;;;;;5034608;28;20207;-78
2022/09/16 08:28:49;;;;;;;3.27;1.10;;;12.60;99.90;;;;;;5053501;28;20222;-79
2022/09/16 08:31:17;;;;;;;3.93;1.00;;;12.60;99.90;;;;;;5053025;28;20206;-79
2022/09/16 08:33:44;;;;;;;3.83;0.87;;;12.50;99.90;;;;;;5035172;28;20221;-78
2022/09/16 08:36:14;;;;;;;4.57;1.00;;;12.50;99.90;;;;;;5034758;28;20202;-79
2022/09/16 08:38:42;;;;;;;2.20;1.00;;;12.50;99.90;;;;;;5035418;28;20206;-80
2022/09/16 08:41:33;;;;;;;4.00;1.37;;;12.60;99.90;;;;;;5033962;28;20207;-79
2022/09/16 08:44:13;;;;;;;2.87;1.13;;;12.60;99.90;;;;;;5035266;28;20214;-80
2022/09/16 08:46:48;;;;;;;5.33;1.23;;;12.60;99.90;;;;;;5034488;28;20222;-80
2022/09/16 08:49:21;;;;;;;5.40;1.33;;;12.70;99.90;;;;;;5034430;28;20268;-80
2022/09/16 08:51:49;;;;;;;5.30;1.10;;;12.90;99.90;;;;;;5034344;28;20284;-80
2022/09/16 08:54:27;;;;;;;5.47;1.03;;;13.00;99.90;;;;;;5035341;28;20194;-80
2022/09/16 08:56:59;;;;;;;8.53;1.60;;;13.20;99.90;;;;;;5033813;28;20241;-79
2022/09/16 08:59:30;;;;;;;7.10;1.43;;;13.40;99.90;;;;;;5035057;28;20198;-79
2022/09/16 09:02:07;;;;;;;9.07;1.30;;;13.50;99.90;;;;;;5035061;28;20203;-82
2022/09/16 09:04:34;;;;;;;4.77;1.07;;;13.60;99.90;;;;;;5033798;28;20233;-78
2022/09/16 09:07:10;;;;;;;5.80;1.63;;;13.60;99.90;;;;;;5035147;28;20194;-79
2022/09/16 09:09:49;;;;;;;4.60;0.90;;;13.70;99.90;;;;;;5032665;28;20980;-78
2022/09/16 09:12:26;;;;;;;6.07;1.37;;;13.70;99.90;;;;;;5034755;28;20198;-78
2022/09/16 09:15:05;;;;;;;9.07;1.80;;;13.70;99.90;;;;;;5033337;28;20187;-79
2022/09/16 09:17:45;;;;;;;10.63;1.43;;;13.80;99.90;;;;;;5033329;28;20211;-79
2022/09/16 09:20:22;;;;;;;4.00;1.20;;;13.80;99.90;;;;;;5033659;28;20281;-79
2022/09/16 09:23:06;;;;;;;3.90;1.03;;;14.00;99.90;;;;;;5025314;28;20508;-80
2022/09/16 09:25:40;;;;;;;6.03;1.10;;;14.30;96.20;;;;;;5027004;28;20683;-79
2022/09/16 09:28:22;;;;;;;5.97;1.43;;;14.50;55.90;;;;;;5021260;28;20503;-79
2022/09/16 09:30:59;;;;;;;7.30;1.70;;;14.50;42.50;;;;;;5031128;28;20205;-79
2022/09/16 09:33:34;;;;;;;4.07;1.00;;;14.60;75.50;;;;;;5033371;28;20504;-78
2022/09/16 09:36:34;;;;;;;2.93;0.97;;;14.50;1.00;;;;;;5034284;28;20544;-79
2022/09/16 09:39:41;;;;;;;3.37;0.90;;;14.50;1.00;;;;;;5033209;28;20199;-80
2022/09/16 09:42:16;;;;;;;4.53;1.10;;;14.50;1.00;;;;;;4994185;28;20195;-80
2022/09/16 09:44:53;;;;;;;4.90;1.00;;;14.50;1.00;;;;;;5020335;28;20229;-80
2022/09/16 09:47:24;;;;;;;7.37;1.30;;;14.50;1.00;;;;;;5019654;28;20210;-79
2022/09/16 09:49:55;;;;;;;12.80;2.90;;;14.40;1.00;;;;;;5024355;28;20214;-78
2022/09/16 09:52:28;;;;;;;5.47;1.73;;;14.40;1.00;;;;;;5029999;28;20206;-79
2022/09/16 09:55:00;;;;;;;5.50;1.30;;;14.40;1.00;;;;;;5032243;28;20207;-79
2022/09/16 09:57:32;;;;;;;5.47;1.60;;;14.40;1.00;;;;;;5031386;28;20246;-79
2022/09/16 10:00:08;;;;;;;13.33;2.13;;;14.40;1.00;;;;;;5030521;28;20233;-80
2022/09/16 10:02:39;;;;;;;7.53;1.57;;;14.30;1.00;;;;;;5031802;28;20190;-80
2022/09/16 10:05:06;;;;;;;7.90;1.80;;;14.30;1.00;;;;;;5028206;28;20207;-78
2022/09/16 10:07:38;;;;;;;11.70;3.07;;;14.30;1.00;;;;;;5039848;28;20208;-79
2022/09/16 10:10:16;;;;;;;8.50;2.23;;;14.20;1.00;;;;;;5019287;28;20612;-79
2022/09/16 10:12:43;;;;;;;7.67;2.43;;;14.20;8.40;;;;;;5030271;28;20202;-79
2022/09/16 10:15:22;;;;;;;12.53;2.20;;;14.20;51.40;;;;;;5031473;28;20195;-78
2022/09/16 10:17:50;;;;;;;8.80;2.23;;;14.30;64.40;;;;;;5032183;28;20205;-78
2022/09/16 10:20:27;;;;;;;8.60;2.40;;;14.40;39.70;;;;;;5031613;28;20581;-79
2022/09/16 10:22:57;;;;;;;9.40;2.17;;;14.30;1.00;;;;;;5031811;28;20544;-78
2022/09/16 10:25:25;;;;;;;8.07;1.73;;;14.40;1.00;;;;;;5025440;28;20668;-81
2022/09/16 10:27:57;;;;;;;7.43;1.80;;;14.40;1.00;;;;;;5031232;28;20289;-78
2022/09/16 10:30:26;;;;;;;6.77;1.57;;;14.40;1.00;;;;;;5027377;28;20235;-80
2022/09/16 10:33:00;;;;;;;7.20;1.97;;;14.40;1.00;;;;;;5023862;28;20470;-81
2022/09/16 10:35:29;;;;;;;6.87;1.67;;;14.60;1.00;;;;;;5025307;28;20187;-80
2022/09/16 10:37:58;;;;;;;7.63;1.70;;;14.60;1.00;;;;;;5021048;28;20209;-79
2022/09/16 10:40:26;;;;;;;9.47;1.97;;;14.70;1.00;;;;;;5021302;28;20282;-80
2022/09/16 10:42:56;;;;;;;8.10;2.43;;;14.60;1.00;;;;;;5024527;28;20214;-80
2022/09/16 10:45:27;;;;;;;6.97;1.97;;;14.70;1.00;;;;;;5022283;28;20229;-79
2022/09/16 10:47:58;;;;;;;9.97;1.80;;;14.80;1.00;;;;;;5022312;28;20286;-80
2022/09/16 10:50:26;;;;;;;8.20;1.77;;;15.10;1.00;;;;;;5019586;28;20202;-79
2022/09/16 10:52:53;;;;;;;14.50;2.70;;;15.40;1.00;;;;;;5011524;28;20861;-80
2022/09/16 10:55:27;;;;;;;10.57;2.00;;;15.70;1.00;;;;;;5025889;28;20209;-80
2022/09/16 10:58:06;;;;;;;10.73;2.27;;;16.00;1.00;;;;;;5031665;28;20628;-79
2022/09/16 11:00:41;;;;;;;7.83;1.97;;;16.10;1.00;;;;;;5031720;28;20198;-79
2022/09/16 11:03:37;;;;;;;6.57;1.90;;;16.30;1.00;;;;;;5034348;28;20272;-81
2022/09/16 11:06:19;;;;;;;6.53;1.73;;;16.30;99.90;;;;;;5036080;28;20509;-78
2022/09/16 11:08:59;;;;;;;8.10;2.20;;;16.10;99.90;;;;;;5038914;28;20267;-79
2022/09/16 11:11:42;;;;;;;8.23;1.95;;;16.10;99.90;;;;;;5037027;28;20206;-79
2022/09/16 11:14:18;;;;;;;7.05;1.70;;;16.20;1.00;;;;;;5037750;28;20207;-79
2022/09/16 11:17:10;;;;;;;7.50;1.83;;;16.50;1.00;;;;;;5034528;28;20263;-79
2022/09/16 11:19:48;;;;;;;13.45;2.85;;;16.70;99.90;;;;;;5032444;28;20211;-80
2022/09/16 11:22:27;;;;;;;8.10;1.85;;;16.70;1.00;;;;;;5031604;28;20526;-79
2022/09/16 11:25:17;;;;;;;6.05;1.63;;;16.80;1.00;;;;;;5033400;28;20229;-77
2022/09/16 11:27:54;;;;;;;8.77;2.13;;;16.90;99.90;;;;;;5018691;28;20203;-78
2022/09/16 11:30:22;;;;;;;9.15;2.03;;;16.80;99.90;;;;;;5013427;28;20345;-78
2022/09/16 11:33:05;;;;;;;11.73;2.03;;;16.70;99.90;;;;;;5021719;28;20550;-77
2022/09/16 11:36:16;;;;;;;15.07;2.05;;;16.60;1.00;;;;;;5031395;28;20202;-78
2022/09/16 11:38:56;;;;;;;9.68;1.90;;;16.70;1.00;;;;;;5034443;28;20210;-78
2022/09/16 11:41:32;;;;;;;6.22;1.92;;;16.90;99.90;;;;;;5035410;28;20194;-77
2022/09/16 11:44:16;;;;;;;9.48;1.80;;;17.10;79.10;;;;;;5035013;28;20205;-77
2022/09/16 11:46:54;;;;;;;7.25;2.10;;;17.10;99.90;;;;;;5033847;28;20225;-78
2022/09/16 11:49:42;;;;;;;7.90;1.60;;;17.10;15.80;;;;;;5034198;28;20265;-79
2022/09/16 11:52:25;;;;;;;9.18;2.25;;;17.20;1.00;;;;;;5034734;28;20736;-76
2022/09/16 11:55:07;;;;;;;8.73;2.28;;;17.40;1.00;;;;;;5034781;28;20771;-77
2022/09/16 11:57:38;;;;;;;8.32;1.77;;;17.50;1.00;;;;;;5034934;28;20234;-76
2022/09/16 12:00:11;;;;;;;8.23;1.90;;;17.80;1.00;;;;;;5034052;28;20778;-76
2022/09/16 12:02:42;;;;;;;11.70;2.40;;;18.00;1.00;;;;;;5035489;28;20195;-76
2022/09/16 12:05:18;;;;;;;3.38;1.25;;;18.00;1.00;;;;;;5035004;28;20237;-76
2022/09/16 12:07:52;;;;;;;7.18;2.03;;;18.20;1.00;;;;;;5034570;28;20194;-79
2022/09/16 12:10:23;;;;;;;6.80;1.73;;;18.30;1.00;;;;;;5034332;28;20594;-77
2022/09/16 12:12:53;;;;;;;5.32;1.90;;;18.20;99.90;;;;;;5034654;28;20763;-75
2022/09/16 12:15:25;;;;;;;8.70;2.00;;;18.10;99.90;;;;;;5034885;28;20205;-77
2022/09/16 12:17:55;;;;;;;6.95;1.85;;;18.20;1.00;;;;;;5034878;28;20281;-77
2022/09/16 12:20:29;;;;;;;4.70;1.63;;;18.20;99.90;;;;;;5034122;28;20206;-76
2022/09/16 12:23:02;;;;;;;5.65;1.67;;;18.30;99.90;;;;;;5035037;28;20217;-75
2022/09/16 12:25:33;;;;;;;7.22;1.58;;;18.20;99.90;;;;;;5034686;28;20225;-76
2022/09/16 12:28:03;;;;;;;10.50;1.85;;;18.10;99.90;;;;;;5034040;28;20206;-76
2022/09/16 12:30:35;;;;;;;3.67;1.30;;;18.10;99.90;;;;;;5034613;28;20214;-77
2022/09/16 12:33:06;;;;;;;9.02;2.17;;;18.30;99.90;;;;;;5035160;28;20221;-77
2022/09/16 12:35:38;;;;;;;9.65;1.58;;;18.40;99.90;;;;;;5034061;28;20722;-77
2022/09/16 12:38:12;;;;;;;6.68;1.50;;;18.40;99.90;;;;;;5035467;28;20597;-76
2022/09/16 12:40:52;;;;;;;5.57;1.55;;;18.30;99.90;;;;;;5034304;28;20197;-76
2022/09/16 12:43:46;;;;;;;11.38;2.15;;;18.10;99.90;;;;;;5035201;28;20509;-77
2022/09/16 12:46:47;;;;;;;5.95;1.60;;;18.10;99.90;;;;;;5034472;28;20653;-76
2022/09/16 12:49:43;;;;;;;8.38;2.25;;;17.90;99.90;;;;;;5033506;28;20541;-77
2022/09/16 12:52:26;;;;;;;6.03;1.73;;;17.60;1.00;;;;;;4992128;28;20506;-77
2022/09/16 12:55:28;;;;;;;8.77;2.00;;;17.50;1.00;;;;;;5033958;28;20703;-76
2022/09/16 12:58:11;;;;;;;8.80;1.83;;;17.50;1.00;;;;;;5034904;28;20277;-76
2022/09/16 13:00:43;;;;;;;5.25;1.67;;;17.50;1.00;;;;;;5034903;28;20208;-76
2022/09/16 13:03:15;;;;;;;5.35;1.30;;;17.70;99.90;;;;;;5033771;28;20207;-76
2022/09/16 13:05:46;;;;;;;8.52;1.58;;;17.70;99.90;;;;;;5034665;28;20245;-75
2022/09/16 13:08:21;;;;;;;9.45;1.75;;;17.90;99.90;;;;;;5034975;28;20230;-75
2022/09/16 13:10:56;;;;;;;8.48;1.95;;;18.00;99.90;;;;;;5034175;28;20500;-75
2022/09/16 13:13:30;;;;;;;7.55;1.65;;;18.30;1.00;;;;;;5034487;28;20198;-75